Time;durP1;ratioP1;P1;durP2;ratioP2;P2;SDS_P1;SDS_P2;PMS_P1;PMS_P2;Temp;Humidity;BMP_temperature;BMP_pressure;BME280_temperature;BME280_humidity;BME280_pressure;Samples;Min_cycle;Max_cycle;Signal;HPM_P1;HPM_P2
2024/04/07 00:02:56;;;;;;;9.80;7.00;;;;;;;13.92;67.50;99187.61;103290;1293;544995;-78
2024/04/07 00:06:33;;;;;;;9.20;7.20;;;;;;;13.92;67.60;99185.86;103014;1300;545705;-78
2024/04/07 00:10:11;;;;;;;8.90;7.00;;;;;;;13.92;67.74;99188.66;103170;1295;545873;-78
2024/04/07 00:13:49;;;;;;;10.00;7.90;;;;;;;13.93;67.79;99188.98;103853;1286;545548;-78
2024/04/07 00:17:25;;;;;;;16.60;13.30;;;;;;;13.91;67.86;99187.13;103164;1299;545031;-80
2024/04/07 00:21:06;;;;;;;15.00;10.10;;;;;;;13.91;68.03;99188.91;103952;1293;545665;-78
2024/04/07 00:24:43;;;;;;;10.40;7.30;;;;;;;13.89;68.06;99189.91;103647;1298;545097;-78
2024/04/07 00:28:25;;;;;;;9.70;7.40;;;;;;;13.87;68.04;99180.34;103250;1293;546397;-79
2024/04/07 00:32:00;;;;;;;10.20;7.40;;;;;;;13.84;68.11;99185.82;103481;1295;545608;-80
2024/04/07 00:35:59;;;;;;;8.70;5.90;;;;;;;13.84;68.35;99190.08;103169;1298;545985;-77
2024/04/07 00:39:19;;;;;;;8.60;7.10;;;;;;;13.84;68.34;99183.38;103487;1297;544935;-79
2024/04/07 00:42:57;;;;;;;9.70;6.70;;;;;;;13.83;68.37;99177.25;103379;1295;545680;-79
2024/04/07 00:46:33;;;;;;;10.50;7.60;;;;;;;13.83;68.46;99173.91;103186;1294;544952;-80
2024/04/07 00:50:14;;;;;;;9.30;6.80;;;;;;;13.83;68.57;99173.89;103163;1298;544985;-79
2024/04/07 00:53:57;;;;;;;10.00;6.60;;;;;;;13.83;68.63;99168.08;103439;1292;545424;-79
2024/04/07 00:57:34;;;;;;;8.50;7.10;;;;;;;13.82;68.71;99167.20;103340;1298;545021;-80
2024/04/07 01:01:11;;;;;;;9.60;7.00;;;;;;;13.83;68.68;99162.56;103092;1293;545400;-80
2024/04/07 01:04:49;;;;;;;9.00;6.50;;;;;;;13.83;68.84;99160.13;103073;1295;544983;-79
2024/04/07 01:08:24;;;;;;;8.10;5.60;;;;;;;13.83;68.77;99161.67;103108;1298;544978;-79
2024/04/07 01:12:13;;;;;;;10.30;8.00;;;;;;;13.82;68.94;99161.03;103343;1298;546265;-79
2024/04/07 01:15:43;;;;;;;8.70;7.60;;;;;;;13.83;68.91;99163.27;102994;1296;545068;-78
2024/04/07 01:19:21;;;;;;;10.60;8.00;;;;;;;13.83;68.94;99159.96;103147;1293;546291;-78
2024/04/07 01:22:59;;;;;;;9.10;7.30;;;;;;;13.80;69.00;99159.24;103177;1292;545931;-78
2024/04/07 01:26:37;;;;;;;12.20;7.80;;;;;;;13.78;69.15;99153.73;103396;1293;546133;-78
2024/04/07 01:30:14;;;;;;;14.50;11.10;;;;;;;13.76;69.19;99149.13;103122;1292;545670;-76
2024/04/07 01:33:53;;;;;;;10.00;8.30;;;;;;;13.73;69.41;99145.60;103131;1293;545114;-77
2024/04/07 01:37:30;;;;;;;11.70;8.30;;;;;;;13.69;69.37;99150.98;102968;1293;545061;-78
2024/04/07 01:41:07;;;;;;;11.60;7.60;;;;;;;13.64;69.51;99150.24;103274;1304;546061;-79
2024/04/07 01:44:45;;;;;;;8.60;7.00;;;;;;;13.60;69.34;99143.11;103723;1295;545021;-80
2024/04/07 01:48:23;;;;;;;7.90;6.70;;;;;;;13.56;69.51;99140.50;103128;1298;545286;-79
2024/04/07 01:52:01;;;;;;;6.50;5.30;;;;;;;13.53;69.50;99146.92;103443;1295;545433;-78
2024/04/07 01:55:38;;;;;;;5.70;5.10;;;;;;;13.51;69.60;99146.86;103561;1292;544930;-79
2024/04/07 01:59:16;;;;;;;6.20;5.00;;;;;;;13.49;69.71;99140.41;103326;1294;544922;-77
2024/04/07 02:02:54;;;;;;;6.50;4.40;;;;;;;13.50;69.86;99139.70;103023;1295;545768;-78
2024/04/07 02:06:32;;;;;;;6.70;4.90;;;;;;;13.49;69.81;99136.73;103358;1292;545006;-79
2024/04/07 02:10:09;;;;;;;5.40;4.50;;;;;;;13.48;69.88;99134.38;103534;1295;545657;-80
2024/04/07 02:13:51;;;;;;;6.40;5.40;;;;;;;13.45;69.93;99131.35;103301;1296;545024;-79
2024/04/07 02:17:25;;;;;;;6.60;5.30;;;;;;;13.42;70.01;99137.74;102987;1295;544966;-81
2024/04/07 02:21:03;;;;;;;7.50;6.00;;;;;;;13.39;70.15;99142.16;103503;1298;545107;-81
2024/04/07 02:24:40;;;;;;;6.40;5.20;;;;;;;13.35;70.05;99139.38;103729;1298;544872;-80
2024/04/07 02:28:18;;;;;;;6.20;5.00;;;;;;;13.33;70.17;99136.17;103595;1295;545047;-80
2024/04/07 02:31:54;;;;;;;5.30;4.70;;;;;;;13.31;70.19;99131.16;103527;1296;545753;-79
2024/04/07 02:35:36;;;;;;;7.70;5.50;;;;;;;13.30;70.24;99133.59;103267;1296;544957;-78
2024/04/07 02:39:37;;;;;;;6.40;4.60;;;;;;;13.29;70.23;99136.45;105152;1292;549109;-84
2024/04/07 02:42:52;;;;;;;8.30;5.60;;;;;;;13.24;70.34;99135.02;104104;1286;544928;-80
2024/04/07 02:50:06;;;;;;;10.60;7.70;;;;;;;13.10;70.13;99135.52;103618;1292;544754;-78
2024/04/07 02:53:44;;;;;;;8.50;7.60;;;;;;;13.02;70.31;99128.43;103872;1293;544783;-80
2024/04/07 02:57:21;;;;;;;10.40;6.20;;;;;;;12.90;70.26;99126.19;103184;1295;544966;-79
2024/04/07 03:01:06;;;;;;;10.20;7.30;;;;;;;12.84;70.36;99125.15;103909;1296;545542;-83
2024/04/07 03:04:38;;;;;;;6.80;6.10;;;;;;;12.79;70.44;99127.05;103145;1294;545599;-81
2024/04/07 03:08:15;;;;;;;7.40;5.70;;;;;;;12.76;70.69;99124.92;103629;1295;544904;-80
2024/04/07 03:11:53;;;;;;;8.50;5.70;;;;;;;12.75;70.61;99122.88;103953;1304;544993;-80
2024/04/07 03:15:30;;;;;;;5.50;4.30;;;;;;;12.75;70.99;99124.48;103362;1294;544828;-80
2024/04/07 03:19:08;;;;;;;6.40;5.10;;;;;;;12.76;71.17;99125.48;103554;1293;545013;-81
2024/04/07 03:22:43;;;;;;;5.70;4.30;;;;;;;12.76;71.27;99121.23;103780;1298;544965;-80
2024/04/07 03:26:25;;;;;;;6.10;4.10;;;;;;;12.78;71.36;99128.02;103469;1292;545081;-79
2024/04/07 03:30:04;;;;;;;7.40;4.30;;;;;;;12.79;71.42;99120.38;103032;1294;545821;-78
2024/04/07 03:33:41;;;;;;;4.90;4.20;;;;;;;12.80;71.37;99116.93;103455;1295;545085;-77
2024/04/07 03:37:19;;;;;;;6.80;5.40;;;;;;;12.81;71.47;99117.77;103411;1292;544749;-76
2024/04/07 03:40:56;;;;;;;5.40;4.90;;;;;;;12.78;71.50;99116.69;103525;1293;545050;-76
2024/04/07 03:44:34;;;;;;;7.20;6.00;;;;;;;12.73;71.51;99114.02;103553;1292;545676;-75
2024/04/07 03:48:12;;;;;;;6.60;5.70;;;;;;;12.65;71.47;99114.14;103269;1295;545791;-78
2024/04/07 03:51:50;;;;;;;6.60;5.20;;;;;;;12.59;71.57;99120.00;103711;1289;545026;-77
2024/04/07 03:55:27;;;;;;;6.10;5.30;;;;;;;12.54;71.68;99120.16;103013;1297;545557;-75
2024/04/07 03:59:05;;;;;;;9.00;5.60;;;;;;;12.49;71.70;99118.67;103006;1292;545783;-75
2024/04/07 04:02:40;;;;;;;6.90;5.40;;;;;;;12.44;71.93;99119.68;103024;1298;545000;-75
2024/04/07 04:06:22;;;;;;;5.90;4.90;;;;;;;12.39;71.84;99115.77;103280;1293;545019;-79
2024/04/07 04:10:00;;;;;;;5.30;4.80;;;;;;;12.35;72.02;99114.95;103458;1306;545940;-74
2024/04/07 04:13:38;;;;;;;7.20;5.00;;;;;;;12.33;72.13;99116.30;103299;1304;544989;-75
2024/04/07 04:17:14;;;;;;;6.30;5.00;;;;;;;12.30;72.10;99114.88;103645;1298;544990;-76
2024/04/07 04:20:54;;;;;;;5.80;4.90;;;;;;;12.29;72.17;99119.21;103108;1295;545111;-77
2024/04/07 04:24:35;;;;;;;6.30;4.80;;;;;;;12.27;72.36;99124.94;103348;1295;545179;-76
2024/04/07 04:28:13;;;;;;;5.70;5.00;;;;;;;12.29;72.55;99123.77;103674;1289;545023;-79
2024/04/07 04:31:52;;;;;;;6.30;4.40;;;;;;;12.35;72.58;99123.45;103124;1296;544927;-79
2024/04/07 04:35:33;;;;;;;6.00;4.20;;;;;;;12.44;72.79;99125.68;103103;1292;544779;-77
2024/04/07 04:39:06;;;;;;;6.10;4.20;;;;;;;12.50;72.75;99130.22;103224;1299;545019;-78
2024/04/07 04:42:48;;;;;;;4.90;4.10;;;;;;;12.60;72.78;99132.65;103549;1295;545402;-80
2024/04/07 04:46:26;;;;;;;5.20;3.80;;;;;;;12.71;72.96;99128.58;103851;1292;544988;-79
2024/04/07 04:50:01;;;;;;;5.40;4.30;;;;;;;12.87;73.00;99133.05;104141;1294;545831;-79
2024/04/07 04:53:44;;;;;;;5.90;4.20;;;;;;;13.14;73.63;99134.56;104488;1295;545012;-82
2024/04/07 04:57:27;;;;;;;7.70;4.30;;;;;;;13.53;73.85;99132.08;105336;1292;545011;-80
2024/04/07 05:01:17;;;;;;;5.30;3.80;;;;;;;13.93;73.04;99139.98;104885;1292;549288;-79
2024/04/07 05:04:34;;;;;;;4.40;3.50;;;;;;;14.25;73.10;99138.04;105002;1295;544968;-83
2024/04/07 05:08:39;;;;;;;9.50;4.60;;;;;;;14.61;73.06;99134.86;105175;1296;549096;-80
2024/04/07 06:03:46;;;;;;;4.40;3.20;;;;;;;20.68;68.50;99093.83;104491;1288;554512;-78
2024/04/07 06:06:34;;;;;;;5.40;3.10;;;;;;;21.41;67.77;99096.85;103543;1292;544960;-78
2024/04/07 07:02:06;;;;;;;3.10;2.30;;;;;;;25.58;61.32;99109.98;104519;1288;554622;-77
2024/04/07 07:04:56;;;;;;;2.60;1.40;;;;;;;25.91;59.92;99098.44;103438;1292;545552;-76
2024/04/07 07:08:34;;;;;;;4.30;1.70;;;;;;;25.92;59.93;99093.89;103077;1292;545105;-77
2024/04/07 07:12:10;;;;;;;2.90;1.60;;;;;;;25.98;59.35;99092.07;103155;1296;546036;-77
2024/04/07 07:15:51;;;;;;;3.30;1.90;;;;;;;25.98;58.46;99099.09;104539;1294;545026;-81
2024/04/07 07:19:27;;;;;;;5.10;2.80;;;;;;;26.00;58.48;99101.15;104819;1294;544970;-85
2024/04/07 07:23:16;;;;;;;5.50;2.00;;;;;;;25.94;57.84;99103.09;103628;1295;545670;-84
2024/04/07 07:26:54;;;;;;;3.30;1.80;;;;;;;25.80;57.23;99103.46;105508;1292;545004;-84
2024/04/07 07:40:59;;;;;;;4.00;1.80;;;;;;;25.91;56.67;99112.32;106913;1286;554089;-85
2024/04/07 07:43:47;;;;;;;5.40;2.60;;;;;;;25.95;56.29;99110.68;105286;1292;544878;-83
2024/04/07 07:47:54;;;;;;;2.30;1.40;;;;;;;25.92;55.18;99104.05;104215;1297;552910;-84
2024/04/07 07:51:18;;;;;;;4.70;1.50;;;;;;;25.88;54.62;99108.70;105108;1292;548125;-86
2024/04/07 07:54:55;;;;;;;4.60;1.60;;;;;;;25.93;54.20;99106.64;105310;1297;544784;-84
2024/04/07 07:58:22;;;;;;;7.20;1.20;;;;;;;25.88;53.28;99113.60;104814;1298;546544;-83
2024/04/07 08:02:02;;;;;;;2.60;1.30;;;;;;;25.85;53.11;99117.17;104836;1295;545047;-84
2024/04/07 08:05:35;;;;;;;2.10;1.40;;;;;;;25.79;52.30;99124.70;104642;1298;545436;-85
2024/04/07 08:09:21;;;;;;;3.20;1.40;;;;;;;25.76;51.57;99127.80;104994;1294;546023;-86
2024/04/07 08:13:05;;;;;;;2.30;1.20;;;;;;;25.74;51.45;99128.14;105293;1293;544877;-85
2024/04/07 08:16:40;;;;;;;3.00;1.70;;;;;;;25.75;51.16;99131.48;105128;1293;545418;-83
2024/04/07 08:20:20;;;;;;;3.50;1.40;;;;;;;25.82;50.87;99139.86;104878;1295;544934;-83
2024/04/07 08:24:00;;;;;;;1.90;1.60;;;;;;;25.89;50.74;99139.50;105159;1289;545303;-83
2024/04/07 08:27:40;;;;;;;4.10;1.60;;;;;;;25.99;51.09;99134.21;105084;1292;545004;-84
2024/04/07 08:31:22;;;;;;;2.80;1.80;;;;;;;26.11;50.46;99138.13;105716;1289;544842;-85
2024/04/07 08:34:58;;;;;;;2.70;1.10;;;;;;;26.21;50.23;99141.54;104389;1298;545652;-83
2024/04/07 08:38:41;;;;;;;1.70;1.50;;;;;;;26.31;50.18;99137.16;104457;1292;546028;-84
2024/04/07 08:42:20;;;;;;;5.20;1.60;;;;;;;26.42;49.79;99138.19;104614;1295;545049;-85
2024/04/07 08:46:13;;;;;;;3.00;1.40;;;;;;;26.43;49.61;99137.88;105906;1297;544989;-83
2024/04/07 08:49:35;;;;;;;3.50;1.40;;;;;;;26.51;49.23;99138.75;104966;1295;544998;-87
2024/04/07 08:53:11;;;;;;;4.10;1.50;;;;;;;26.61;48.64;99128.40;104615;1289;544796;-84
2024/04/07 08:56:54;;;;;;;2.20;1.40;;;;;;;26.70;48.51;99128.15;105161;1292;544871;-85
2024/04/07 09:00:31;;;;;;;5.10;1.60;;;;;;;26.82;48.29;99117.88;105045;1295;544849;-83
2024/04/07 09:04:06;;;;;;;1.70;1.20;;;;;;;26.90;48.52;99118.81;104684;1292;545089;-83
2024/04/07 09:07:46;;;;;;;2.30;1.00;;;;;;;26.94;47.56;99108.58;104657;1294;544944;-85
2024/04/07 09:11:31;;;;;;;5.00;1.50;;;;;;;27.00;47.04;99102.30;104930;1298;545714;-85
2024/04/07 09:15:19;;;;;;;2.90;1.30;;;;;;;27.10;47.15;99099.61;103352;1298;550553;-76
2024/04/07 09:18:43;;;;;;;3.40;1.30;;;;;;;27.17;46.45;99100.70;103548;1292;545027;-74
2024/04/07 09:22:19;;;;;;;1.90;1.20;;;;;;;27.20;45.91;99103.36;103215;1296;544952;-75
2024/04/07 09:26:02;;;;;;;1.60;0.90;;;;;;;27.27;45.62;99102.23;103106;1293;545484;-74
2024/04/07 09:29:41;;;;;;;2.80;1.10;;;;;;;27.38;45.34;99099.93;103986;1295;545061;-76
2024/04/07 09:33:22;;;;;;;2.00;1.10;;;;;;;27.54;45.44;99094.70;104253;1293;545052;-76
2024/04/07 09:37:00;;;;;;;4.10;0.90;;;;;;;27.67;45.06;99096.19;104308;1294;544965;-76
2024/04/07 09:40:39;;;;;;;3.30;1.20;;;;;;;27.78;44.84;99093.23;103841;1299;545032;-77
2024/04/07 09:44:19;;;;;;;1.90;1.10;;;;;;;27.88;44.71;99087.89;103721;1294;545141;-76
2024/04/07 09:47:58;;;;;;;5.60;0.90;;;;;;;27.93;44.23;99080.23;103059;1300;545671;-76
2024/04/07 09:51:44;;;;;;;2.20;1.20;;;;;;;27.94;44.02;99071.66;103440;1293;545716;-76
2024/04/07 09:55:36;;;;;;;2.10;0.90;;;;;;;28.00;43.82;99069.83;103345;1301;546313;-76
2024/04/07 09:58:59;;;;;;;4.80;1.10;;;;;;;28.06;43.29;99070.79;103126;1301;545063;-75
2024/04/07 10:02:37;;;;;;;2.70;0.80;;;;;;;28.19;42.92;99067.96;103473;1292;545908;-76
2024/04/07 10:06:13;;;;;;;3.80;1.10;;;;;;;28.25;42.81;99068.25;103016;1308;545514;-77
2024/04/07 10:09:52;;;;;;;6.60;1.20;;;;;;;28.29;42.59;99063.70;103392;1292;545589;-76
2024/04/07 10:13:26;;;;;;;9.40;1.20;;;;;;;28.31;42.43;99064.94;103182;1294;545058;-77
2024/04/07 10:17:11;;;;;;;3.90;1.30;;;;;;;28.29;41.95;99063.63;103177;1300;545052;-77
2024/04/07 10:20:54;;;;;;;2.90;1.10;;;;;;;28.27;41.60;99062.88;103462;1295;546066;-76
2024/04/07 10:24:30;;;;;;;2.30;1.10;;;;;;;28.27;41.58;99050.65;103218;1295;546107;-77
2024/04/07 10:28:09;;;;;;;2.60;1.10;;;;;;;28.30;41.05;99054.70;103295;1295;545649;-77
2024/04/07 10:31:46;;;;;;;2.30;1.20;;;;;;;28.34;41.08;99054.20;104166;1295;545000;-83
2024/04/07 10:35:24;;;;;;;3.20;1.00;;;;;;;28.30;40.76;99056.83;104250;1294;545239;-84
2024/04/07 10:39:10;;;;;;;3.20;1.20;;;;;;;28.28;40.74;99060.05;104703;1292;545131;-85
2024/04/07 10:42:39;;;;;;;1.60;0.90;;;;;;;28.26;40.63;99054.52;103893;1294;545032;-84
2024/04/07 10:46:21;;;;;;;1.30;1.20;;;;;;;28.21;40.38;99052.50;104031;1298;545149;-84
2024/04/07 10:49:52;;;;;;;1.70;1.10;;;;;;;28.20;40.38;99051.83;103988;1295;545433;-82
2024/04/07 10:53:33;;;;;;;1.60;1.00;;;;;;;28.24;40.00;99053.64;104278;1295;545062;-84
2024/04/07 10:57:15;;;;;;;5.60;1.00;;;;;;;28.28;39.93;99052.96;104171;1295;545550;-83
2024/04/07 11:00:56;;;;;;;2.90;0.90;;;;;;;28.31;39.44;99059.29;103511;1299;545591;-77
2024/04/07 11:04:35;;;;;;;2.40;0.80;;;;;;;28.41;39.42;99056.92;103343;1293;545738;-77
2024/04/07 11:08:12;;;;;;;2.30;0.80;;;;;;;28.56;39.13;99057.28;103316;1292;545096;-78
2024/04/07 11:11:54;;;;;;;2.90;1.10;;;;;;;28.72;38.83;99064.98;103221;1295;545946;-76
2024/04/07 11:15:31;;;;;;;3.90;1.00;;;;;;;28.86;38.49;99068.95;103997;1292;549293;-83
2024/04/07 11:19:05;;;;;;;4.10;2.10;;;;;;;28.97;38.50;99087.45;104208;1296;545642;-83
2024/04/07 11:22:43;;;;;;;1.90;1.30;;;;;;;29.17;38.29;99092.46;104108;1295;545072;-82
2024/04/07 11:26:19;;;;;;;2.50;1.30;;;;;;;29.43;38.37;99096.29;104173;1302;544938;-84
2024/04/07 11:30:01;;;;;;;2.50;1.00;;;;;;;29.58;37.89;99087.31;104789;1289;545662;-84
2024/04/07 11:33:38;;;;;;;2.20;0.70;;;;;;;29.76;37.78;99085.56;104092;1295;545933;-82
2024/04/07 11:37:16;;;;;;;1.30;0.90;;;;;;;29.87;37.33;99087.55;104152;1298;544955;-83
2024/04/07 11:40:54;;;;;;;2.80;0.90;;;;;;;29.99;37.46;99089.76;105179;1286;545062;-84
2024/04/07 11:44:30;;;;;;;1.30;1.00;;;;;;;30.18;37.15;99091.20;104500;1298;545081;-84
2024/04/07 11:48:09;;;;;;;3.70;1.20;;;;;;;30.29;37.08;99091.92;105318;1289;545157;-86
2024/04/07 11:51:52;;;;;;;2.30;0.80;;;;;;;30.38;36.72;99088.84;104790;1295;545640;-83
2024/04/07 11:55:32;;;;;;;2.90;0.90;;;;;;;30.51;36.48;99093.86;104839;1292;545080;-85
2024/04/07 11:59:07;;;;;;;1.60;0.70;;;;;;;30.68;36.31;99093.38;104609;1293;544827;-84
2024/04/07 12:02:44;;;;;;;2.50;0.90;;;;;;;30.85;35.80;99087.79;104802;1293;545896;-82
2024/04/07 12:06:22;;;;;;;2.00;0.90;;;;;;;31.05;35.81;99091.05;104823;1293;544996;-86
2024/04/07 12:09:58;;;;;;;1.90;0.90;;;;;;;31.07;35.71;99084.92;104786;1297;545388;-84
2024/04/07 12:13:40;;;;;;;2.10;0.80;;;;;;;31.08;35.54;99075.58;104182;1294;545016;-84
2024/04/07 12:17:19;;;;;;;5.50;1.40;;;;;;;31.01;35.79;99080.47;103369;1313;545709;-78
2024/04/07 12:20:56;;;;;;;1.80;1.20;;;;;;;30.80;36.14;99094.03;103964;1293;545085;-78
2024/04/07 12:24:33;;;;;;;2.40;1.20;;;;;;;30.54;36.17;99104.64;104373;1291;545051;-78
2024/04/07 12:28:09;;;;;;;2.00;0.90;;;;;;;30.15;36.19;99097.23;104306;1296;545007;-79
2024/04/07 12:31:51;;;;;;;1.70;1.20;;;;;;;29.86;36.16;99096.80;104709;1292;545076;-85
2024/04/07 12:35:28;;;;;;;3.30;1.50;;;;;;;29.77;36.00;99101.14;104434;1292;545011;-83
2024/04/07 12:39:05;;;;;;;4.50;1.20;;;;;;;29.48;36.17;99092.76;103976;1298;545028;-85
2024/04/07 12:42:47;;;;;;;3.70;1.40;;;;;;;29.31;36.25;99089.30;104516;1293;544943;-86
2024/04/07 12:46:25;;;;;;;2.60;1.20;;;;;;;29.35;36.58;99092.75;103723;1296;545053;-84
2024/04/07 12:50:04;;;;;;;3.20;1.40;;;;;;;29.30;36.19;99099.06;104533;1291;545084;-85
2024/04/07 12:53:44;;;;;;;1.60;1.20;;;;;;;29.08;36.13;99087.96;104736;1292;545410;-84
2024/04/07 12:57:18;;;;;;;1.30;0.90;;;;;;;28.94;36.20;99085.09;104213;1295;544998;-84
2024/04/07 13:00:55;;;;;;;3.20;1.20;;;;;;;29.05;36.40;99083.71;104302;1296;546706;-85
2024/04/07 13:04:33;;;;;;;1.50;1.10;;;;;;;29.20;35.96;99079.73;104554;1292;545064;-83
2024/04/07 13:08:09;;;;;;;2.20;1.20;;;;;;;29.25;35.88;99080.34;104810;1292;545011;-85
2024/04/07 13:11:49;;;;;;;2.70;1.30;;;;;;;29.46;36.31;99068.98;104668;1295;545905;-83
2024/04/07 13:15:30;;;;;;;2.90;1.30;;;;;;;29.69;36.29;99058.54;103628;1298;546030;-79
2024/04/07 13:19:08;;;;;;;2.50;1.20;;;;;;;29.72;36.32;99045.29;103231;1299;545696;-79
2024/04/07 13:22:46;;;;;;;2.60;1.10;;;;;;;29.69;36.42;99039.13;103151;1294;545113;-77
2024/04/07 13:26:23;;;;;;;2.30;1.40;;;;;;;29.83;36.58;99034.04;103167;1294;545955;-77
2024/04/07 13:30:01;;;;;;;2.20;1.50;;;;;;;29.90;36.47;99022.90;103501;1296;544997;-83
2024/04/07 13:33:39;;;;;;;1.20;1.00;;;;;;;29.93;36.27;99020.39;105061;1288;544898;-83
2024/04/07 13:37:17;;;;;;;3.20;1.20;;;;;;;29.93;36.23;99021.85;104036;1294;545620;-83
2024/04/07 13:40:56;;;;;;;1.20;1.00;;;;;;;29.88;36.37;99025.02;104130;1294;545595;-82
2024/04/07 13:44:33;;;;;;;2.80;1.20;;;;;;;29.89;36.10;99023.44;105013;1295;545122;-85
2024/04/07 13:48:10;;;;;;;1.90;1.00;;;;;;;29.92;35.89;99029.60;104598;1296;545039;-83
2024/04/07 13:51:52;;;;;;;2.70;1.30;;;;;;;30.02;35.88;99031.66;104607;1292;546623;-83
2024/04/07 13:55:26;;;;;;;1.60;1.20;;;;;;;30.10;35.97;99027.63;104320;1294;545930;-84
2024/04/07 13:59:03;;;;;;;1.40;1.10;;;;;;;30.08;35.77;99027.25;103959;1301;545694;-84
2024/04/07 14:02:40;;;;;;;1.50;1.20;;;;;;;30.01;35.98;99022.94;103161;1294;545620;-76
2024/04/07 14:06:22;;;;;;;1.60;0.90;;;;;;;29.96;35.95;99029.95;103365;1296;544879;-76
2024/04/07 14:10:04;;;;;;;1.10;1.00;;;;;;;29.96;35.84;99031.96;103382;1295;545780;-76
2024/04/07 14:13:35;;;;;;;1.40;1.10;;;;;;;29.99;36.05;99027.23;103599;1289;545365;-77
2024/04/07 14:17:17;;;;;;;3.90;1.30;;;;;;;30.06;35.94;99028.41;103004;1301;545042;-76
2024/04/07 14:20:53;;;;;;;2.10;1.10;;;;;;;30.12;35.88;99027.80;103815;1288;545539;-76
2024/04/07 14:24:33;;;;;;;3.00;1.20;;;;;;;30.22;35.90;99030.27;103212;1294;545603;-76
2024/04/07 14:28:22;;;;;;;2.20;1.10;;;;;;;30.31;35.97;99031.91;103127;1294;549038;-76
2024/04/07 14:31:53;;;;;;;3.60;1.70;;;;;;;30.31;36.24;99031.91;103849;1292;545719;-78
2024/04/07 14:35:29;;;;;;;3.80;1.40;;;;;;;30.31;36.25;99033.66;103243;1299;545146;-78
2024/04/07 14:39:10;;;;;;;3.60;1.30;;;;;;;30.21;36.35;99034.30;103407;1292;545073;-78
2024/04/07 14:42:50;;;;;;;2.70;1.40;;;;;;;30.07;36.16;99027.99;103340;1295;545102;-81
2024/04/07 14:46:26;;;;;;;4.00;1.70;;;;;;;29.89;36.30;99028.08;103861;1292;545114;-80
2024/04/07 14:50:04;;;;;;;3.60;1.70;;;;;;;29.83;36.36;99027.77;103353;1299;544908;-82
2024/04/07 14:53:47;;;;;;;3.20;1.30;;;;;;;29.77;36.74;99020.95;103294;1296;548126;-80
2024/04/07 15:07:45;;;;;;;3.30;0.90;;;;;;;29.92;35.62;99009.55;104244;1289;554374;-78
2024/04/07 15:10:34;;;;;;;3.00;0.90;;;;;;;29.93;34.88;99008.92;104262;1294;546234;-78
2024/04/07 15:14:16;;;;;;;2.00;1.20;;;;;;;29.73;34.54;99008.80;104636;1295;544850;-79
2024/04/07 15:17:55;;;;;;;2.30;1.30;;;;;;;29.58;33.78;99011.59;104353;1292;545040;-80
2024/04/07 15:21:32;;;;;;;3.60;1.40;;;;;;;29.54;34.57;99009.98;104035;1297;545133;-81
2024/04/07 15:25:09;;;;;;;4.20;1.30;;;;;;;29.55;35.61;99011.62;104521;1289;544997;-81
2024/04/07 15:28:46;;;;;;;3.20;1.10;;;;;;;29.59;35.70;99016.23;104408;1289;544898;-79
2024/04/07 15:32:25;;;;;;;3.20;1.50;;;;;;;29.60;35.82;99012.61;103141;1295;544986;-78
2024/04/07 15:36:07;;;;;;;2.60;1.20;;;;;;;29.61;35.11;99010.48;103174;1295;545025;-78
2024/04/07 15:39:46;;;;;;;1.70;1.10;;;;;;;29.60;34.53;98997.91;103123;1295;545035;-78
2024/04/07 15:43:28;;;;;;;2.00;1.10;;;;;;;29.60;33.60;98996.80;103408;1294;545513;-77
2024/04/07 16:25:07;;;;;;;3.40;2.20;;;;;;;29.27;34.13;98990.58;104582;1292;562908;-82
2024/04/07 16:27:56;;;;;;;6.70;2.10;;;;;;;28.94;33.55;98990.59;103948;1293;545148;-83
2024/04/07 16:31:38;;;;;;;7.40;2.40;;;;;;;28.63;34.24;98993.20;104061;1295;545027;-87
2024/04/07 16:35:15;;;;;;;4.30;1.00;;;;;;;28.23;33.20;99001.38;104818;1292;546199;-81
2024/04/07 16:38:51;;;;;;;2.40;1.30;;;;;;;27.67;33.61;98995.20;104854;1294;545867;-83
2024/04/07 16:42:32;;;;;;;3.50;1.40;;;;;;;27.20;33.99;98995.86;104531;1296;544993;-82
2024/04/07 16:46:10;;;;;;;4.30;1.30;;;;;;;26.86;33.69;98989.02;103699;1293;546324;-78
2024/04/07 16:49:50;;;;;;;2.40;1.20;;;;;;;26.53;34.08;98992.52;103239;1295;545096;-78
2024/04/07 16:53:32;;;;;;;3.00;1.20;;;;;;;26.21;34.17;99009.55;104184;1289;544962;-77
2024/04/07 16:57:09;;;;;;;1.90;1.00;;;;;;;25.94;34.26;99006.48;103453;1295;545100;-77
2024/04/07 17:00:48;;;;;;;1.60;1.10;;;;;;;25.71;34.46;99002.91;103742;1301;545406;-83
2024/04/07 17:04:26;;;;;;;1.30;1.10;;;;;;;25.54;34.43;99007.22;104702;1292;545025;-83
2024/04/07 17:08:05;;;;;;;3.00;1.50;;;;;;;25.40;34.68;99010.52;104378;1292;545020;-83
2024/04/07 17:11:40;;;;;;;3.10;1.40;;;;;;;25.27;34.65;99006.88;104542;1289;545939;-84
2024/04/07 17:15:18;;;;;;;1.60;1.00;;;;;;;25.16;34.57;99006.52;104645;1293;545127;-82
2024/04/07 17:18:54;;;;;;;4.00;1.60;;;;;;;25.05;34.67;99012.26;104605;1293;545150;-83
2024/04/07 17:22:36;;;;;;;1.90;1.20;;;;;;;24.94;34.70;99015.11;104218;1307;545209;-83
2024/04/07 17:26:12;;;;;;;4.10;1.20;;;;;;;24.84;34.82;99019.04;104460;1293;544933;-84
2024/04/07 17:29:54;;;;;;;3.40;1.60;;;;;;;24.73;35.18;99022.66;104812;1289;545216;-83
2024/04/07 17:33:40;;;;;;;2.40;1.70;;;;;;;24.65;35.34;99031.63;104529;1296;545031;-84
2024/04/07 17:37:09;;;;;;;2.70;1.90;;;;;;;24.51;35.56;99033.75;104509;1292;545423;-83
2024/04/07 17:40:50;;;;;;;3.70;1.90;;;;;;;24.38;35.85;99036.11;104284;1292;544830;-85
2024/04/07 17:44:25;;;;;;;3.40;2.40;;;;;;;24.25;36.04;99042.61;104262;1292;546215;-84
2024/04/07 17:48:02;;;;;;;3.90;2.30;;;;;;;24.12;36.26;99051.92;105041;1292;546245;-85
2024/04/07 17:51:38;;;;;;;4.00;2.50;;;;;;;24.00;36.78;99054.37;105917;1288;544767;-84
2024/04/07 17:55:21;;;;;;;4.40;2.40;;;;;;;23.88;37.09;99059.67;105439;1294;545228;-88
2024/04/07 17:59:04;;;;;;;7.50;3.50;;;;;;;23.76;37.07;99062.94;105240;1292;544760;-83
2024/04/07 18:02:37;;;;;;;5.20;3.50;;;;;;;23.64;37.47;99067.41;105271;1293;545061;-86
2024/04/07 18:06:28;;;;;;;7.40;4.50;;;;;;;23.51;37.71;99063.69;105103;1295;545692;-85
2024/04/07 18:09:59;;;;;;;7.10;4.70;;;;;;;23.40;37.92;99072.52;104993;1285;545519;-86
2024/04/07 18:13:56;;;;;;;18.10;10.20;;;;;;;23.31;38.25;99076.63;105103;1293;552302;-84
2024/04/07 18:17:12;;;;;;;29.70;15.80;;;;;;;23.15;38.06;99087.58;104303;1296;544972;-80
2024/04/07 18:20:56;;;;;;;31.00;8.00;;;;;;;22.99;38.18;99092.70;104001;1292;546048;-86
2024/04/07 18:24:31;;;;;;;13.80;7.50;;;;;;;22.79;38.30;99096.59;103684;1292;545036;-81
2024/04/07 18:28:13;;;;;;;17.40;11.00;;;;;;;22.59;38.77;99098.71;103615;1292;544939;-82
2024/04/07 18:31:51;;;;;;;21.50;15.70;;;;;;;22.41;38.89;99102.05;104031;1294;545031;-82
2024/04/07 18:35:28;;;;;;;15.20;9.70;;;;;;;22.23;39.04;99104.17;103853;1296;544899;-84
2024/04/07 18:39:07;;;;;;;30.00;24.40;;;;;;;22.05;39.22;99100.05;104498;1294;545055;-84
2024/04/07 18:42:44;;;;;;;34.90;28.20;;;;;;;21.88;39.40;99095.58;104203;1293;545112;-83
2024/04/07 18:46:21;;;;;;;29.80;19.10;;;;;;;21.69;40.08;99097.43;103541;1295;545096;-76
2024/04/07 18:49:59;;;;;;;25.00;15.30;;;;;;;21.53;40.24;99097.10;103352;1293;545028;-77
2024/04/07 18:53:35;;;;;;;17.50;7.40;;;;;;;21.40;40.43;99091.74;103388;1299;545047;-77
2024/04/07 18:57:16;;;;;;;10.90;7.60;;;;;;;21.27;40.70;99088.77;103382;1291;545557;-74
2024/04/07 19:00:52;;;;;;;19.40;8.60;;;;;;;21.13;41.14;99087.20;103208;1295;545389;-77
2024/04/07 19:04:34;;;;;;;13.70;7.90;;;;;;;21.02;41.42;99091.71;103658;1297;545781;-76
2024/04/07 19:08:12;;;;;;;19.90;9.00;;;;;;;20.92;41.41;99096.69;103110;1293;545137;-76
2024/04/07 19:11:50;;;;;;;15.10;8.30;;;;;;;20.81;41.75;99101.25;103419;1299;545118;-76
2024/04/07 19:15:28;;;;;;;14.70;8.40;;;;;;;20.70;41.98;99099.27;103240;1300;545515;-76
2024/04/07 19:19:05;;;;;;;17.20;11.70;;;;;;;20.61;42.28;99103.20;103040;1299;545522;-76
2024/04/07 19:22:43;;;;;;;19.50;12.90;;;;;;;20.53;42.31;99101.44;103136;1295;545948;-77
2024/04/07 19:26:25;;;;;;;18.60;12.30;;;;;;;20.45;42.46;99102.40;103698;1290;547116;-77